Main page
METAR-TAF:

METAR-TAF

Airports :

King Abdulaziz International Airport

Jeddah, Saudi Arabia

latitude: 21-42N, longitude: 039-11E, elevation: 15 m

Current weather observation

The report was made 1 hour and 7 minutes ago, at 16:00 UTC
Wind 12 kt from the Northwest
Temperature 30°C
Humidity 70%
Pressure 1011 hPa
Visibility: 8000 m
Few clouds at a height of 2000 ft

METAR: OEJN 211600Z 31012KT 8000 FEW020 30/24 Q1011 NOSIG

Time: 20:07 (17:07 UTC)

Forecast

The report was made 6 hours and 7 minutes ago, at 11:00 UTC
Forecast valid from 21 at 12 UTC to 22 at 18 UTC
Wind 12 kt from the Northwest
Visibility 10 km or more
no clouds below 1500 m and no cumulonimbus
Becoming
from 21 at 18 UTC to 21 at 20 UTC
Wind 4 kt from the North
Visibility: 8000 m

TAF: OEJN 211100Z 2112/2218 32012KT CAVOK BECMG 2118/2120 01004KT 8000 NSC

Weather observations and forecasts of more than 4000 airports (METAR and TAF reports).

The available stations are represented by yellow and red dots on the map.

Hover mouse over dot to see the name of the station.

Then click to see weather observations and forecasts.

To change the map : click on the green buttons with a black cross to zoom in, on the green button with a dash to zoom out, or on the green arrows for adjacent maps.


METAR-TAF: